Watertown International Airport Watertown US
ICAO: KART
IATA: ART
Category: Medium
Scheduled Services: Yes

Elevation: 325 ft
TransAlt. 18000 ft.

Airport Communications:
WHEELER SACK APP/DEP:128.25
ASOS:133.525
BURLINGTON RDO:122.2
CTAF/UNICOM:123

KART Zoom In..

If you have problems with the map follow the link
https://www.worldairports.se/pages/airport.php?
ICAO=KART

Runways:

(A) RW 07 length 4999 ft width 150 ft
ILS 111.10 / hdg 65

(B) RW 10 length 5999 ft width 150 ft
---- / hdg 105

(C) RW 25 length 4999 ft width 150 ft
---- / hdg 245

(D) RW 28 length 5999 ft width 150 ft
---- / hdg 285

Location; KART
Day. 07 / Time. 08.21 Zulu
* Altimeter: 30.25
* Temperature: -09° c. -15.8°f.
* Wind from: 000° Speed 00 kn.
Dewpoint: -11° c.
Visibility: 1 m.
Clouds: Few 2600 ft.
Clouds: Broken 3400 ft.
Clouds: Overcast 4300 ft.
Conditions: Light Snow.Conditions: Mist.

KART 070821Z AUTO 00000KT 1 1/4SM -SN BR FEW026 BKN034 OVC043 M09/M11 A3025 RMK AO2 P0000 T10891106


Wind - Calm.

 
 
jpsmedia worldairports.se 2019   terms of use